Vale, South Dakota
Current Conditions -  °F | °C
As of 1:15 PM on Monday 24 Nov 2014 (Local Time) from KSPF Reporting Station
Heavy Snow Heavy Snow  
Wind Chill: 17°   Ceiling: 1400
Heat Index: 30°   Visibility: 0mi
Dew Point: 28°   Wind: 21mph
Humidity: 93%   Direction: 310°NW
Pressure: 29.97"   Gusts: 35mph
Location:  44.62°N, 103.4°W
Report Text: KSPF 242015Z AUTO 31018G30KT M1/4SM +SN BKN014 M01/M02 A2997 RMK AO2 P0008
Loading
Personal Weather Stations






























Interactive Weather Map New forecast layout! Learn more

10-Day Weather Forecast

Advertisements
Track Severe Weather on mobile